Time;durP1;ratioP1;P1;durP2;ratioP2;P2;SDS_P1;SDS_P2;PMS_P1;PMS_P2;Temp;Humidity;BMP_temperature;BMP_pressure;BME280_temperature;BME280_humidity;BME280_pressure;Samples;Min_cycle;Max_cycle;Signal;HPM_P1;HPM_P2
2022/09/06 00:00:59;;;;;;;1.45;0.90;;;15.60;99.90;;;;;;5113909;28;20353;-76
2022/09/06 00:03:26;;;;;;;2.50;2.08;;;15.60;99.90;;;;;;5113862;28;20065;-76
2022/09/06 00:05:54;;;;;;;1.63;1.52;;;;;;;;;;5114059;28;20074;-76
2022/09/06 00:08:19;;;;;;;1.05;1.05;;;15.50;99.90;;;;;;5114124;28;20483;-76
2022/09/06 00:10:45;;;;;;;1.63;1.05;;;15.50;99.90;;;;;;5114219;28;20020;-76
2022/09/06 00:13:12;;;;;;;1.33;1.00;;;15.40;99.90;;;;;;5115367;28;20397;-76
2022/09/06 00:15:38;;;;;;;2.03;0.82;;;15.40;99.90;;;;;;5113751;28;20065;-77
2022/09/06 00:18:06;;;;;;;0.68;0.68;;;15.40;99.90;;;;;;5113895;28;20016;-77
2022/09/06 00:20:33;;;;;;;0.60;0.60;;;15.50;99.90;;;;;;5114269;28;20077;-77
2022/09/06 00:23:01;;;;;;;0.77;0.77;;;15.50;99.90;;;;;;5115359;28;20023;-77
2022/09/06 00:25:28;;;;;;;0.93;0.93;;;15.40;99.90;;;;;;5113692;28;20031;-77
2022/09/06 00:28:02;;;;;;;0.63;0.63;;;15.40;99.90;;;;;;5113801;28;20031;-76
2022/09/06 00:30:29;;;;;;;3.45;0.63;;;15.50;99.90;;;;;;5115218;28;20030;-76
2022/09/06 00:32:58;;;;;;;0.98;0.98;;;15.40;99.90;;;;;;5113742;28;20027;-76
2022/09/06 00:35:25;;;;;;;1.38;1.23;;;15.30;99.90;;;;;;5113588;28;20051;-77
2022/09/06 00:37:55;;;;;;;1.02;0.70;;;15.30;99.90;;;;;;5113624;28;20020;-76
2022/09/06 00:40:20;;;;;;;;;;;15.30;99.90;;;;;;5114029;28;20024;-76
2022/09/06 00:42:46;;;;;;;1.90;0.70;;;15.40;99.90;;;;;;5113641;28;19910;-75
2022/09/06 00:45:13;;;;;;;1.25;1.15;;;15.40;99.90;;;;;;5113358;28;20027;-76
2022/09/06 00:47:41;;;;;;;1.00;0.82;;;15.40;99.90;;;;;;5115348;28;20020;-75
2022/09/06 00:50:07;;;;;;;0.73;0.73;;;;;;;;;;5113423;28;20068;-76
2022/09/06 00:52:35;;;;;;;1.48;0.65;;;15.40;99.90;;;;;;5113476;28;20030;-76
2022/09/06 00:55:01;;;;;;;1.77;1.30;;;15.40;99.90;;;;;;5113499;28;20064;-77
2022/09/06 00:57:29;;;;;;;1.85;0.73;;;15.50;99.90;;;;;;5113780;28;20023;-77
2022/09/06 00:59:59;;;;;;;1.95;0.70;;;15.50;99.90;;;;;;5117472;28;20015;-77
2022/09/06 01:02:24;;;;;;;1.17;1.15;;;15.60;99.90;;;;;;5117296;28;20086;-77
2022/09/06 01:04:51;;;;;;;2.63;0.70;;;15.60;99.90;;;;;;5118522;28;20344;-76
2022/09/06 01:07:26;;;;;;;1.42;1.38;;;15.70;99.90;;;;;;5117222;28;20027;-75
2022/09/06 01:10:20;;;;;;;17.80;2.25;;;15.70;99.90;;;;;;5098920;28;20039;-76
2022/09/06 01:13:04;;;;;;;1.63;0.95;;;15.70;99.90;;;;;;5117101;28;20533;-77
2022/09/06 01:15:54;;;;;;;0.82;0.63;;;15.60;99.90;;;;;;5117189;28;20069;-76
2022/09/06 01:18:37;;;;;;;1.40;1.02;;;15.50;99.90;;;;;;5117347;28;20106;-76
2022/09/06 01:21:27;;;;;;;1.38;0.85;;;15.50;99.90;;;;;;5116886;28;20152;-78
2022/09/06 01:24:37;;;;;;;0.85;0.63;;;15.50;99.90;;;;;;5116861;28;20401;-78
2022/09/06 01:27:24;;;;;;;0.70;0.70;;;15.50;99.90;;;;;;5111618;28;20040;-77
2022/09/06 01:30:01;;;;;;;7.13;0.73;;;15.50;99.90;;;;;;5116764;28;20427;-77
2022/09/06 01:32:35;;;;;;;2.42;0.85;;;15.50;99.90;;;;;;5116956;28;20098;-77
2022/09/06 01:35:14;;;;;;;0.55;0.55;;;15.50;99.90;;;;;;5116902;28;20032;-78
2022/09/06 01:37:40;;;;;;;0.60;0.60;;;15.40;99.90;;;;;;5116775;28;20047;-77
2022/09/06 01:40:06;;;;;;;1.75;1.30;;;15.40;99.90;;;;;;5116559;28;20476;-77
2022/09/06 01:42:34;;;;;;;0.77;0.75;;;15.30;99.90;;;;;;5116626;28;20023;-77
2022/09/06 01:45:11;;;;;;;3.67;0.75;;;15.30;99.90;;;;;;5116409;28;20114;-77
2022/09/06 01:47:45;;;;;;;1.30;1.10;;;15.30;99.90;;;;;;5116579;28;20019;-74
2022/09/06 01:50:29;;;;;;;1.00;1.00;;;15.30;99.90;;;;;;5116887;28;20020;-76
2022/09/06 01:53:26;;;;;;;1.13;1.13;;;15.30;99.90;;;;;;5116530;28;20019;-75
2022/09/06 01:56:06;;;;;;;1.55;0.98;;;15.30;99.90;;;;;;5115505;28;20027;-76
2022/09/06 01:58:43;;;;;;;0.63;0.50;;;15.40;99.90;;;;;;5097989;28;20016;-75
2022/09/06 02:01:19;;;;;;;0.88;0.80;;;15.50;99.90;;;;;;5097251;28;20032;-74
2022/09/06 02:03:57;;;;;;;0.50;0.50;;;15.50;99.90;;;;;;5115311;28;20518;-73
2022/09/06 02:06:28;;;;;;;0.65;0.65;;;15.60;99.90;;;;;;5115445;28;20104;-73
2022/09/06 02:09:03;;;;;;;0.63;0.63;;;15.60;99.90;;;;;;5115159;28;20102;-74
2022/09/06 02:11:34;;;;;;;4.85;0.60;;;15.50;99.90;;;;;;5096844;28;20026;-74
2022/09/06 02:14:09;;;;;;;1.30;0.90;;;15.50;99.90;;;;;;5115398;28;20076;-73
2022/09/06 02:16:38;;;;;;;1.13;0.85;;;15.50;99.90;;;;;;5115885;28;20026;-74
2022/09/06 02:19:11;;;;;;;0.30;0.30;;;15.50;99.90;;;;;;5097550;28;20033;-74
2022/09/06 02:21:41;;;;;;;14.05;1.13;;;15.50;99.90;;;;;;5097456;28;20019;-73
2022/09/06 02:24:14;;;;;;;0.93;0.93;;;15.50;99.90;;;;;;5115859;28;20023;-73
2022/09/06 02:26:42;;;;;;;1.45;0.80;;;15.60;99.90;;;;;;5115820;28;20027;-74
2022/09/06 02:29:08;;;;;;;9.45;1.80;;;15.60;99.90;;;;;;5115700;28;20020;-74
2022/09/06 02:31:43;;;;;;;0.60;0.60;;;15.70;99.90;;;;;;5115642;28;20019;-73
2022/09/06 02:34:13;;;;;;;1.23;1.15;;;15.70;99.90;;;;;;5115598;28;20016;-74
2022/09/06 02:36:38;;;;;;;0.85;0.85;;;15.70;99.90;;;;;;5115648;28;20020;-73
2022/09/06 02:39:04;;;;;;;0.68;0.68;;;15.60;99.90;;;;;;5115488;28;20039;-74
2022/09/06 02:41:31;;;;;;;1.15;0.90;;;15.50;99.90;;;;;;5115320;28;20031;-74
2022/09/06 02:43:57;;;;;;;1.10;0.80;;;15.50;99.90;;;;;;5115356;28;20031;-74
2022/09/06 02:46:23;;;;;;;2.17;0.65;;;15.60;99.90;;;;;;5115219;28;20039;-74
2022/09/06 02:48:49;;;;;;;3.40;0.80;;;15.60;99.90;;;;;;5115437;28;20067;-74
2022/09/06 02:51:15;;;;;;;0.73;0.73;;;15.60;99.90;;;;;;5097187;28;20471;-74
2022/09/06 02:53:41;;;;;;;0.60;0.60;;;15.50;99.90;;;;;;5115134;28;20102;-74
2022/09/06 02:56:07;;;;;;;2.42;1.92;;;15.50;99.90;;;;;;5096824;28;20019;-74
2022/09/06 02:58:32;;;;;;;1.40;0.75;;;15.50;99.90;;;;;;5115039;28;20499;-74
2022/09/06 03:00:58;;;;;;;2.65;1.80;;;15.40;99.90;;;;;;5115045;28;20173;-75
2022/09/06 03:03:26;;;;;;;1.05;0.50;;;;;;;;;;5114885;28;20058;-75
2022/09/06 03:05:52;;;;;;;0.70;0.70;;;15.40;99.90;;;;;;5115156;28;20031;-75
2022/09/06 03:08:20;;;;;;;0.70;0.70;;;15.40;99.90;;;;;;5097072;28;20020;-74
2022/09/06 03:10:50;;;;;;;0.30;0.30;;;15.30;99.90;;;;;;5115127;28;20031;-75
2022/09/06 03:13:16;;;;;;;1.73;0.82;;;15.30;99.90;;;;;;5115332;28;20020;-73
2022/09/06 03:15:42;;;;;;;1.40;1.30;;;15.30;99.90;;;;;;5114743;28;20035;-73
2022/09/06 03:18:08;;;;;;;1.23;1.13;;;15.20;99.90;;;;;;5114814;28;20024;-74
2022/09/06 03:20:34;;;;;;;0.70;0.70;;;15.20;99.90;;;;;;5114376;28;20031;-74
2022/09/06 03:23:00;;;;;;;1.77;1.10;;;15.20;99.90;;;;;;5114023;28;20031;-75
2022/09/06 03:25:26;;;;;;;0.55;0.55;;;15.20;99.90;;;;;;5114678;28;20046;-75
2022/09/06 03:27:51;;;;;;;0.90;0.90;;;15.20;99.90;;;;;;5096245;28;20016;-74
2022/09/06 03:30:17;;;;;;;0.73;0.50;;;15.30;99.90;;;;;;5114503;28;20024;-75
2022/09/06 03:32:44;;;;;;;3.28;1.33;;;15.20;99.90;;;;;;5096420;28;20480;-74
2022/09/06 03:35:09;;;;;;;1.45;0.85;;;15.30;99.90;;;;;;5096487;28;20076;-73
2022/09/06 03:37:35;;;;;;;1.13;1.00;;;15.20;99.90;;;;;;5114732;28;20106;-73
2022/09/06 03:40:03;;;;;;;7.60;2.85;;;15.00;99.90;;;;;;5114811;28;20356;-73
2022/09/06 03:42:29;;;;;;;1.75;0.90;;;;;;;;;;5114811;28;20084;-73
2022/09/06 03:44:57;;;;;;;0.52;0.50;;;15.10;99.90;;;;;;5114641;28;20390;-73
2022/09/06 03:47:23;;;;;;;1.80;0.50;;;14.90;99.90;;;;;;5114770;28;20388;-74
2022/09/06 03:49:50;;;;;;;0.82;0.77;;;14.90;99.90;;;;;;5114408;28;20024;-74
2022/09/06 03:52:16;;;;;;;4.57;0.90;;;14.90;99.90;;;;;;5096511;28;20028;-73
2022/09/06 03:54:41;;;;;;;9.43;0.93;;;14.80;99.90;;;;;;5096087;28;20020;-74
2022/09/06 03:57:08;;;;;;;0.60;0.60;;;14.70;99.90;;;;;;5114602;28;20027;-73
2022/09/06 03:59:34;;;;;;;0.95;0.90;;;14.80;99.90;;;;;;5114400;28;20549;-73
2022/09/06 04:02:00;;;;;;;9.30;1.35;;;14.80;99.90;;;;;;5114120;28;20027;-74
2022/09/06 04:04:26;;;;;;;6.15;1.35;;;14.80;99.90;;;;;;5113806;28;20046;-74
2022/09/06 04:06:51;;;;;;;4.72;2.13;;;14.80;99.90;;;;;;5095634;28;20034;-73
2022/09/06 04:09:17;;;;;;;0.45;0.45;;;14.70;99.90;;;;;;5113978;28;20023;-74
2022/09/06 04:11:42;;;;;;;1.17;0.65;;;14.70;99.90;;;;;;5095455;28;20024;-73
2022/09/06 04:14:08;;;;;;;1.35;0.45;;;14.70;99.90;;;;;;5113926;28;20379;-73
2022/09/06 04:16:34;;;;;;;1.85;0.90;;;14.60;99.90;;;;;;5114059;28;20498;-73
2022/09/06 04:19:01;;;;;;;1.60;1.15;;;14.60;99.90;;;;;;5114213;28;20031;-74
2022/09/06 04:21:27;;;;;;;1.02;0.68;;;14.60;99.90;;;;;;5095774;28;20040;-74
2022/09/06 04:23:52;;;;;;;0.75;0.75;;;14.50;99.90;;;;;;5114253;28;20095;-74
2022/09/06 04:26:18;;;;;;;4.38;0.98;;;14.50;99.90;;;;;;5113636;28;20070;-75
2022/09/06 04:28:44;;;;;;;0.80;0.80;;;14.50;99.90;;;;;;5113720;28;20099;-74
2022/09/06 04:31:09;;;;;;;0.80;0.80;;;14.50;99.90;;;;;;5113981;28;20027;-75
2022/09/06 04:33:37;;;;;;;0.73;0.73;;;14.40;99.90;;;;;;5116175;28;20069;-76
2022/09/06 04:36:05;;;;;;;2.35;2.15;;;14.40;99.90;;;;;;5117939;28;20019;-74
2022/09/06 04:38:35;;;;;;;2.00;1.83;;;14.40;99.90;;;;;;5117833;28;20553;-75
2022/09/06 04:41:01;;;;;;;4.82;1.00;;;14.40;99.90;;;;;;5118317;28;20103;-75
2022/09/06 04:43:27;;;;;;;2.63;0.98;;;14.40;99.90;;;;;;5099790;28;20058;-75
2022/09/06 04:45:53;;;;;;;1.48;1.27;;;14.50;99.90;;;;;;5117890;28;20114;-74
2022/09/06 04:48:18;;;;;;;0.93;0.93;;;14.50;99.90;;;;;;5117903;28;20019;-74
2022/09/06 04:50:44;;;;;;;0.40;0.40;;;14.50;99.90;;;;;;5117971;28;20032;-74
2022/09/06 04:53:10;;;;;;;1.27;0.65;;;14.40;99.90;;;;;;5099707;28;20480;-73
2022/09/06 04:55:36;;;;;;;3.17;0.98;;;14.50;99.90;;;;;;5118050;28;20077;-74
2022/09/06 04:58:03;;;;;;;1.27;0.95;;;14.50;99.90;;;;;;5117816;28;20028;-73
2022/09/06 05:00:31;;;;;;;0.40;0.40;;;14.50;99.90;;;;;;5099543;28;20482;-73
2022/09/06 05:02:58;;;;;;;1.20;1.10;;;14.40;99.90;;;;;;5117682;28;20043;-73
2022/09/06 05:05:24;;;;;;;0.30;0.30;;;14.50;99.90;;;;;;5117629;28;20468;-73
2022/09/06 05:07:53;;;;;;;6.05;2.67;;;14.50;99.90;;;;;;5117942;28;20468;-73
2022/09/06 05:10:21;;;;;;;0.63;0.45;;;14.60;99.90;;;;;;5117507;28;20058;-73
2022/09/06 05:12:48;;;;;;;0.70;0.70;;;14.60;99.90;;;;;;5117735;28;20051;-75
2022/09/06 05:15:15;;;;;;;1.25;0.93;;;14.70;99.90;;;;;;5117337;28;20476;-74
2022/09/06 05:17:41;;;;;;;0.43;0.43;;;14.80;99.90;;;;;;5119150;28;20460;-73
2022/09/06 05:20:07;;;;;;;0.80;0.80;;;14.80;99.90;;;;;;5120685;28;20035;-73
2022/09/06 05:22:33;;;;;;;1.73;1.50;;;14.90;99.90;;;;;;5119100;28;20026;-73
2022/09/06 05:24:58;;;;;;;0.70;0.55;;;15.10;99.90;;;;;;5117339;28;20020;-74
2022/09/06 05:27:24;;;;;;;1.77;1.45;;;15.30;99.90;;;;;;5117042;28;20027;-74
2022/09/06 05:29:50;;;;;;;1.45;1.08;;;15.30;99.90;;;;;;5117207;28;20048;-76
2022/09/06 05:32:15;;;;;;;1.40;1.30;;;15.30;99.90;;;;;;5120255;28;20024;-75
2022/09/06 05:34:41;;;;;;;1.33;1.15;;;15.40;99.90;;;;;;5117340;28;20027;-74
2022/09/06 05:37:07;;;;;;;0.85;0.85;;;15.50;99.90;;;;;;5117013;28;20019;-75
2022/09/06 05:39:32;;;;;;;6.25;1.02;;;15.70;99.90;;;;;;5116589;28;20046;-77
2022/09/06 05:41:59;;;;;;;0.63;0.63;;;15.90;99.90;;;;;;5116215;28;20024;-77
2022/09/06 05:44:25;;;;;;;0.52;0.52;;;15.90;99.90;;;;;;5115351;28;20023;-76
2022/09/06 05:46:51;;;;;;;3.92;1.48;;;15.90;99.90;;;;;;5103771;28;20094;-75
2022/09/06 05:49:17;;;;;;;3.40;1.88;;;;;;;;;;5122366;28;20403;-75
2022/09/06 05:51:43;;;;;;;0.95;0.95;;;16.10;99.90;;;;;;5117575;28;20028;-76
2022/09/06 05:54:11;;;;;;;0.63;0.63;;;16.20;99.90;;;;;;5098103;28;20039;-75
2022/09/06 05:56:37;;;;;;;0.55;0.55;;;16.40;99.90;;;;;;5116257;28;20030;-74
2022/09/06 05:59:03;;;;;;;0.70;0.68;;;16.60;99.90;;;;;;5116275;28;20027;-74
2022/09/06 06:01:29;;;;;;;8.65;2.28;;;16.70;99.90;;;;;;5116398;28;20020;-74
2022/09/06 06:04:03;;;;;;;0.63;0.63;;;16.90;99.90;;;;;;5116036;28;20051;-75
2022/09/06 06:06:31;;;;;;;12.10;6.22;;;17.00;99.90;;;;;;5116224;28;20024;-75
2022/09/06 06:08:57;;;;;;;6.57;3.55;;;17.20;99.90;;;;;;5116037;28;20027;-75
2022/09/06 06:11:24;;;;;;;0.90;0.90;;;17.30;99.90;;;;;;5115995;28;20020;-76
2022/09/06 06:13:51;;;;;;;0.88;0.75;;;17.30;99.90;;;;;;5116559;28;20367;-74
2022/09/06 06:16:19;;;;;;;2.15;0.65;;;17.40;99.90;;;;;;5115905;28;20586;-75
2022/09/06 06:18:45;;;;;;;0.65;0.65;;;17.50;99.90;;;;;;5116411;28;20426;-75
2022/09/06 06:21:26;;;;;;;1.60;0.90;;;17.40;99.90;;;;;;5115955;28;20019;-75
2022/09/06 06:23:54;;;;;;;0.68;0.68;;;17.30;99.90;;;;;;5115862;28;20023;-75
2022/09/06 06:26:21;;;;;;;0.70;0.70;;;17.30;99.90;;;;;;5115699;28;20032;-76
2022/09/06 06:28:47;;;;;;;1.55;0.57;;;17.40;99.90;;;;;;5115404;28;20024;-76
2022/09/06 06:31:13;;;;;;;0.85;0.85;;;17.50;99.90;;;;;;5097367;28;20024;-76
2022/09/06 06:33:39;;;;;;;0.55;0.55;;;17.50;99.90;;;;;;5097321;28;20027;-77
2022/09/06 06:36:17;;;;;;;0.85;0.85;;;17.60;99.90;;;;;;5097294;28;20027;-74
2022/09/06 06:38:44;;;;;;;0.82;0.60;;;17.80;99.90;;;;;;5115606;28;20099;-75
2022/09/06 06:41:12;;;;;;;1.23;0.70;;;18.10;99.90;;;;;;5097483;28;20027;-79
2022/09/06 06:43:38;;;;;;;4.65;0.95;;;18.40;99.90;;;;;;5097305;28;20028;-80
2022/09/06 06:46:06;;;;;;;0.85;0.85;;;18.70;99.90;;;;;;5115733;28;20047;-76
2022/09/06 06:48:32;;;;;;;3.50;1.30;;;18.90;99.90;;;;;;5115848;28;20072;-76
2022/09/06 06:50:57;;;;;;;1.75;0.95;;;19.10;99.90;;;;;;5115268;28;20032;-75
2022/09/06 06:53:23;;;;;;;0.95;0.60;;;;;;;;;;5115150;28;20020;-77
2022/09/06 06:55:49;;;;;;;2.72;1.80;;;19.60;99.90;;;;;;5114977;28;20480;-76
2022/09/06 06:58:16;;;;;;;2.50;1.80;;;19.80;99.90;;;;;;5115136;28;20016;-77
2022/09/06 07:00:43;;;;;;;0.70;0.70;;;19.90;99.90;;;;;;5096862;28;20058;-76
2022/09/06 07:03:09;;;;;;;3.85;1.00;;;20.00;99.90;;;;;;5114935;28;20193;-77
2022/09/06 07:05:36;;;;;;;4.65;1.77;;;19.90;99.90;;;;;;5114946;28;20064;-79
2022/09/06 07:08:02;;;;;;;3.10;1.70;;;19.90;99.90;;;;;;5114979;28;20023;-77
2022/09/06 07:10:28;;;;;;;2.22;0.85;;;19.90;99.90;;;;;;5114837;28;20019;-79
2022/09/06 07:12:54;;;;;;;1.30;0.88;;;19.70;99.90;;;;;;5114917;28;20411;-79
2022/09/06 07:15:20;;;;;;;0.55;0.55;;;19.80;99.90;;;;;;5096610;28;20116;-78
2022/09/06 07:17:45;;;;;;;1.10;1.02;;;19.80;99.90;;;;;;5114755;28;20104;-78
2022/09/06 07:20:11;;;;;;;0.50;0.50;;;20.00;99.90;;;;;;5096485;28;20034;-78
2022/09/06 07:22:39;;;;;;;1.40;0.57;;;20.20;99.90;;;;;;5096418;28;20486;-77
2022/09/06 07:25:05;;;;;;;0.75;0.75;;;20.30;99.90;;;;;;5114545;28;20067;-78
2022/09/06 07:27:31;;;;;;;2.53;1.92;;;20.30;99.90;;;;;;5096195;28;20498;-78
2022/09/06 07:29:57;;;;;;;0.80;0.80;;;20.30;99.90;;;;;;5114658;28;20106;-75
2022/09/06 07:32:22;;;;;;;0.60;0.60;;;20.50;99.90;;;;;;5114657;28;20310;-75
2022/09/06 07:34:48;;;;;;;0.47;0.47;;;20.80;99.90;;;;;;5114423;28;20026;-76
2022/09/06 07:37:17;;;;;;;10.43;0.90;;;21.20;99.90;;;;;;5114480;28;20028;-75
2022/09/06 07:39:43;;;;;;;8.07;0.53;;;21.30;99.90;;;;;;5114479;28;20096;-75
2022/09/06 07:42:09;;;;;;;1.42;1.23;;;21.40;99.90;;;;;;5114368;28;20749;-79
2022/09/06 07:44:34;;;;;;;1.17;0.60;;;21.40;99.90;;;;;;5114244;28;20020;-77
2022/09/06 07:47:05;;;;;;;3.75;0.50;;;21.60;99.90;;;;;;5114186;28;20472;-78
2022/09/06 07:49:31;;;;;;;1.17;0.55;;;22.20;99.90;;;;;;5095901;28;20125;-78
2022/09/06 07:51:57;;;;;;;0.75;0.75;;;22.20;99.90;;;;;;5095815;28;20024;-77
2022/09/06 07:54:23;;;;;;;0.85;0.50;;;22.70;99.90;;;;;;5114132;28;20020;-77
2022/09/06 07:56:49;;;;;;;1.80;0.73;;;23.20;99.90;;;;;;5114210;28;20487;-77
2022/09/06 07:59:15;;;;;;;2.85;2.40;;;23.70;99.90;;;;;;5096290;28;20169;-77
2022/09/06 08:01:46;;;;;;;4.88;1.08;;;24.20;99.90;;;;;;5114244;28;20095;-79
2022/09/06 08:04:13;;;;;;;2.03;1.10;;;24.50;99.90;;;;;;5113865;28;20052;-78
2022/09/06 08:06:42;;;;;;;1.17;0.50;;;24.60;99.90;;;;;;5113841;28;20043;-78
2022/09/06 08:09:09;;;;;;;1.95;1.15;;;24.70;99.90;;;;;;5113267;28;20015;-77
2022/09/06 08:11:36;;;;;;;8.50;1.40;;;24.70;99.90;;;;;;5113813;28;20035;-77
2022/09/06 08:14:05;;;;;;;0.63;0.55;;;24.80;99.90;;;;;;5095609;28;20047;-79
2022/09/06 08:16:32;;;;;;;3.00;1.08;;;24.90;99.90;;;;;;5095755;28;20054;-78
2022/09/06 08:19:00;;;;;;;8.20;1.45;;;25.10;99.90;;;;;;5113652;28;20065;-77
2022/09/06 08:21:33;;;;;;;8.02;1.20;;;25.10;99.90;;;;;;5113850;28;20015;-78
2022/09/06 08:24:05;;;;;;;1.25;1.15;;;25.40;99.90;;;;;;5113627;28;20475;-76
2022/09/06 08:26:33;;;;;;;0.70;0.70;;;26.30;99.90;;;;;;5113615;28;20067;-78
2022/09/06 08:29:01;;;;;;;7.37;3.83;;;27.60;99.90;;;;;;5113705;28;20074;-78
2022/09/06 08:31:29;;;;;;;1.35;0.20;;;28.50;99.90;;;;;;5113674;28;20027;-78
2022/09/06 08:33:56;;;;;;;0.90;0.85;;;28.60;99.90;;;;;;5113707;28;20107;-77
2022/09/06 08:36:22;;;;;;;3.58;0.70;;;28.90;96.80;;;;;;5113717;28;20124;-78
2022/09/06 08:38:47;;;;;;;1.80;0.70;;;29.60;93.40;;;;;;5113645;28;20555;-79
2022/09/06 08:41:13;;;;;;;1.60;0.70;;;28.60;96.30;;;;;;5095302;28;20024;-78
2022/09/06 08:43:51;;;;;;;0.75;0.75;;;27.10;99.90;;;;;;5113591;28;20032;-78
2022/09/06 08:46:18;;;;;;;1.65;1.42;;;26.70;99.90;;;;;;5113802;28;20055;-78
2022/09/06 08:48:44;;;;;;;2.85;0.90;;;26.00;99.90;;;;;;5113677;28;20023;-78
2022/09/06 08:51:41;;;;;;;1.00;0.93;;;25.50;99.90;;;;;;5095291;28;20024;-78
2022/09/06 08:54:28;;;;;;;0.93;0.68;;;25.10;99.90;;;;;;5113831;28;20028;-78
2022/09/06 08:57:10;;;;;;;0.75;0.68;;;25.30;99.90;;;;;;5095043;28;20054;-78
2022/09/06 08:59:41;;;;;;;3.33;1.05;;;26.00;99.90;;;;;;5095140;28;20063;-78
2022/09/06 09:02:23;;;;;;;1.17;0.98;;;26.80;99.90;;;;;;5113343;28;20019;-77
2022/09/06 09:04:59;;;;;;;1.52;0.70;;;27.10;99.90;;;;;;5113053;28;20437;-79
2022/09/06 09:07:37;;;;;;;1.42;0.93;;;;;;;;;;5095160;28;20031;-78
2022/09/06 09:10:13;;;;;;;4.65;1.85;;;27.50;99.90;;;;;;5095235;28;20026;-78
2022/09/06 09:12:45;;;;;;;4.25;2.20;;;28.10;99.90;;;;;;5113380;28;20024;-79
2022/09/06 09:15:14;;;;;;;0.85;0.63;;;28.20;99.90;;;;;;5113353;28;20089;-78
2022/09/06 09:17:40;;;;;;;1.83;0.50;;;28.20;99.90;;;;;;5113298;28;20037;-81
2022/09/06 09:20:09;;;;;;;2.30;1.25;;;27.90;99.90;;;;;;5097802;28;20107;-84
2022/09/06 09:22:36;;;;;;;2.33;0.45;;;;;;;;;;5099022;28;20019;-85
2022/09/06 09:25:03;;;;;;;0.43;0.43;;;27.50;99.90;;;;;;5098603;28;20073;-78
2022/09/06 09:27:31;;;;;;;0.90;0.85;;;28.20;99.90;;;;;;5117006;28;20093;-79
2022/09/06 09:30:04;;;;;;;5.97;1.50;;;29.00;99.90;;;;;;5116902;28;20508;-79
2022/09/06 09:32:35;;;;;;;1.17;0.52;;;28.90;99.90;;;;;;5116859;28;20068;-79
2022/09/06 09:35:32;;;;;;;1.02;0.60;;;28.80;99.90;;;;;;5116719;28;20046;-79
2022/09/06 09:38:07;;;;;;;2.15;0.50;;;29.00;99.90;;;;;;5116926;28;20365;-79
2022/09/06 09:40:34;;;;;;;1.92;1.50;;;29.20;99.40;;;;;;5116914;28;20069;-78
2022/09/06 09:43:18;;;;;;;0.43;0.43;;;29.60;95.30;;;;;;5098559;28;20092;-83
2022/09/06 09:45:44;;;;;;;0.75;0.70;;;29.60;91.90;;;;;;5117022;28;20031;-80
2022/09/06 09:48:27;;;;;;;0.30;0.30;;;30.00;90.30;;;;;;5098300;28;20076;-77
2022/09/06 09:50:54;;;;;;;0.57;0.50;;;30.30;86.00;;;;;;5116477;28;20024;-79
2022/09/06 09:53:23;;;;;;;1.98;0.45;;;30.80;86.30;;;;;;5097969;28;20019;-79
2022/09/06 09:55:55;;;;;;;1.30;1.13;;;30.80;81.00;;;;;;5116159;28;20031;-79
2022/09/06 09:58:32;;;;;;;0.45;0.30;;;30.80;81.30;;;;;;5098028;28;20642;-78
2022/09/06 10:01:09;;;;;;;0.52;0.40;;;30.20;81.60;;;;;;5097926;28;20027;-78
2022/09/06 10:03:34;;;;;;;0.32;0.22;;;30.20;81.70;;;;;;5097843;28;20060;-78
2022/09/06 10:06:00;;;;;;;0.20;0.20;;;29.60;74.50;;;;;;5116135;28;20043;-78
2022/09/06 10:08:29;;;;;;;4.00;0.28;;;29.10;68.60;;;;;;5116333;28;20388;-78
2022/09/06 10:10:56;;;;;;;3.72;0.60;;;28.90;75.20;;;;;;5115906;28;20027;-78
2022/09/06 10:13:28;;;;;;;1.48;0.75;;;28.50;76.60;;;;;;5097793;28;20015;-78
2022/09/06 10:15:54;;;;;;;1.08;0.65;;;28.20;76.10;;;;;;5116063;28;20051;-79
2022/09/06 10:18:29;;;;;;;0.30;0.30;;;28.10;79.80;;;;;;5115540;28;20024;-81
2022/09/06 10:20:58;;;;;;;0.20;0.20;;;28.10;77.60;;;;;;5097124;28;20031;-78
2022/09/06 10:23:48;;;;;;;0.70;0.70;;;27.70;80.50;;;;;;5115396;28;20354;-79
2022/09/06 10:26:52;;;;;;;1.50;0.95;;;27.50;81.00;;;;;;5096684;28;20185;-79
2022/09/06 10:29:51;;;;;;;0.43;0.43;;;27.30;90.10;;;;;;5115069;28;20015;-78
2022/09/06 10:32:46;;;;;;;0.70;0.70;;;27.20;89.30;;;;;;5108703;28;20452;-79
2022/09/06 10:35:36;;;;;;;0.22;0.22;;;27.00;89.60;;;;;;5115651;28;20032;-76
2022/09/06 10:38:12;;;;;;;3.00;0.93;;;26.60;92.50;;;;;;5115492;28;20098;-78
2022/09/06 10:41:12;;;;;;;0.55;0.55;;;26.40;99.90;;;;;;5115544;28;20027;-78
2022/09/06 10:43:46;;;;;;;1.95;0.73;;;26.50;99.90;;;;;;5115490;28;20496;-78
2022/09/06 10:46:15;;;;;;;0.90;0.88;;;26.60;99.90;;;;;;5115317;28;20032;-78
2022/09/06 10:48:47;;;;;;;0.57;0.57;;;26.40;99.90;;;;;;5115243;28;20016;-77
2022/09/06 10:51:39;;;;;;;2.05;1.25;;;26.30;99.90;;;;;;5115479;28;20024;-79
2022/09/06 10:54:13;;;;;;;1.38;0.47;;;26.00;99.90;;;;;;5103962;28;20031;-78
2022/09/06 10:57:00;;;;;;;0.50;0.50;;;25.70;99.90;;;;;;5115307;28;20020;-77
2022/09/06 10:59:31;;;;;;;3.60;0.43;;;25.70;99.90;;;;;;5115150;28;20020;-79
2022/09/06 11:02:16;;;;;;;0.57;0.57;;;25.60;99.90;;;;;;5115000;28;20016;-79
2022/09/06 11:04:44;;;;;;;0.68;0.50;;;25.40;99.90;;;;;;5114863;28;20051;-79
2022/09/06 11:07:12;;;;;;;1.35;0.98;;;25.20;99.90;;;;;;5114957;28;20023;-79
2022/09/06 11:09:46;;;;;;;1.23;1.00;;;25.00;99.90;;;;;;5096734;28;20024;-80
2022/09/06 11:12:33;;;;;;;0.93;0.68;;;24.70;99.90;;;;;;5114934;28;20042;-76
2022/09/06 11:15:03;;;;;;;0.20;0.20;;;24.40;99.90;;;;;;5096698;28;20112;-75
2022/09/06 11:17:48;;;;;;;0.68;0.40;;;24.10;99.90;;;;;;5114874;28;20060;-77
2022/09/06 11:20:17;;;;;;;0.60;0.60;;;23.90;99.90;;;;;;5114608;28;20157;-75
2022/09/06 11:22:45;;;;;;;0.70;0.70;;;23.90;99.90;;;;;;5114599;28;20016;-76
2022/09/06 11:25:39;;;;;;;0.73;0.43;;;23.50;99.90;;;;;;5114974;28;20027;-74
2022/09/06 11:28:09;;;;;;;1.23;0.63;;;23.10;99.90;;;;;;5114995;28;20031;-79
2022/09/06 11:30:36;;;;;;;4.03;0.90;;;23.20;99.90;;;;;;5114513;28;20349;-79
2022/09/06 11:33:22;;;;;;;0.50;0.50;;;23.00;99.90;;;;;;5096261;28;20380;-79
2022/09/06 11:35:49;;;;;;;1.10;0.52;;;23.00;99.90;;;;;;5096279;28;20476;-76
2022/09/06 11:38:17;;;;;;;2.08;0.82;;;22.90;99.90;;;;;;5114320;28;20033;-78
2022/09/06 11:40:46;;;;;;;1.17;0.53;;;22.80;99.90;;;;;;5114306;28;20050;-78
2022/09/06 11:43:30;;;;;;;0.60;0.60;;;22.70;99.90;;;;;;5113539;28;20403;-75
2022/09/06 11:45:56;;;;;;;0.65;0.65;;;22.70;99.90;;;;;;5114271;28;20472;-78
2022/09/06 11:48:25;;;;;;;5.50;2.30;;;22.70;99.90;;;;;;5096199;28;20031;-76
2022/09/06 11:50:59;;;;;;;0.30;0.30;;;22.60;99.90;;;;;;5095895;28;20015;-76
2022/09/06 11:53:34;;;;;;;1.17;0.90;;;22.50;99.90;;;;;;5096243;28;20091;-76
2022/09/06 11:55:59;;;;;;;2.45;1.75;;;22.40;99.90;;;;;;5114126;28;20019;-74
2022/09/06 11:58:40;;;;;;;5.68;0.98;;;22.30;99.90;;;;;;5095668;28;20471;-78
2022/09/06 12:01:12;;;;;;;0.50;0.50;;;22.30;99.90;;;;;;5114100;28;20035;-74
2022/09/06 12:03:47;;;;;;;1.00;0.60;;;22.30;99.90;;;;;;5095745;28;20126;-76
2022/09/06 12:06:26;;;;;;;1.08;0.68;;;22.40;99.90;;;;;;5114116;28;20036;-75
2022/09/06 12:08:54;;;;;;;9.27;0.93;;;22.30;99.90;;;;;;5095799;28;20031;-74
2022/09/06 12:11:44;;;;;;;0.70;0.60;;;22.40;99.90;;;;;;5114033;28;20024;-76
2022/09/06 12:14:28;;;;;;;1.27;0.70;;;22.30;99.90;;;;;;5095638;28;20380;-77
2022/09/06 12:17:00;;;;;;;0.40;0.40;;;22.20;99.90;;;;;;5113673;28;20027;-75
2022/09/06 12:19:45;;;;;;;0.80;0.80;;;22.20;99.90;;;;;;5095483;28;20353;-77
2022/09/06 12:22:28;;;;;;;0.32;0.32;;;22.10;99.90;;;;;;5113822;28;20493;-74
2022/09/06 12:24:58;;;;;;;1.20;0.93;;;22.30;99.90;;;;;;5095479;28;20035;-74
2022/09/06 12:27:27;;;;;;;1.52;1.42;;;22.50;99.90;;;;;;5095602;28;20056;-78
2022/09/06 12:29:58;;;;;;;0.60;0.60;;;23.00;99.90;;;;;;5113714;28;20070;-78
2022/09/06 12:32:29;;;;;;;0.35;0.35;;;23.60;99.90;;;;;;5113618;28;20051;-76
2022/09/06 12:34:56;;;;;;;0.40;0.30;;;24.30;99.90;;;;;;5113512;28;20415;-78
2022/09/06 12:37:47;;;;;;;4.50;0.47;;;25.00;99.90;;;;;;5113747;28;20023;-77
2022/09/06 12:40:13;;;;;;;0.55;0.38;;;25.30;99.90;;;;;;5113755;28;20024;-78
2022/09/06 12:42:41;;;;;;;0.30;0.30;;;25.00;99.90;;;;;;5095444;28;20024;-78
2022/09/06 12:45:08;;;;;;;0.85;0.47;;;25.10;99.90;;;;;;5095418;28;20084;-78
2022/09/06 12:47:36;;;;;;;0.90;0.73;;;25.00;99.90;;;;;;5095518;28;20051;-78
2022/09/06 12:50:09;;;;;;;0.65;0.35;;;24.80;99.90;;;;;;5095175;28;20023;-80
2022/09/06 12:52:54;;;;;;;0.73;0.52;;;24.90;99.90;;;;;;5095282;28;20026;-78
2022/09/06 12:55:37;;;;;;;0.32;0.32;;;25.30;99.90;;;;;;5098670;28;20031;-77
2022/09/06 12:58:08;;;;;;;2.55;1.33;;;25.30;99.90;;;;;;5099167;28;20428;-75
2022/09/06 13:00:46;;;;;;;0.63;0.43;;;25.40;99.90;;;;;;5117614;28;20032;-79
2022/09/06 13:03:35;;;;;;;0.30;0.30;;;25.40;99.90;;;;;;5117405;28;20071;-78
2022/09/06 13:06:04;;;;;;;3.88;0.65;;;25.10;99.90;;;;;;5117318;28;20075;-78
2022/09/06 13:08:37;;;;;;;7.18;2.20;;;24.80;99.90;;;;;;5117354;28;20024;-78